createdAt,value
2023-04-28T00:00:17.271Z,7.60
2023-04-28T00:01:17.263Z,6.60
2023-04-28T00:02:17.326Z,6.80
2023-04-28T00:03:17.412Z,6.60
2023-04-28T00:04:17.625Z,6.30
2023-04-28T00:05:17.322Z,6.60
2023-04-28T00:06:17.220Z,6.70
2023-04-28T00:07:17.211Z,7.00
2023-04-28T00:08:17.230Z,6.60
2023-04-28T00:09:17.195Z,7.30
2023-04-28T00:10:17.183Z,6.50
2023-04-28T00:11:17.189Z,6.30
2023-04-28T00:12:17.206Z,6.80
2023-04-28T00:13:17.169Z,6.40
2023-04-28T00:14:17.389Z,7.20
2023-04-28T00:15:17.156Z,6.80
2023-04-28T00:16:17.204Z,6.70
2023-04-28T00:17:17.171Z,6.70
2023-04-28T00:18:17.163Z,6.90
2023-04-28T00:19:18.142Z,6.20
2023-04-28T00:20:17.112Z,6.90
2023-04-28T00:21:17.105Z,6.90
2023-04-28T00:22:17.122Z,7.00
2023-04-28T00:23:17.090Z,7.90
2023-04-28T00:24:17.269Z,6.70
2023-04-28T00:25:17.197Z,6.20
2023-04-28T00:26:17.070Z,6.40
2023-04-28T00:27:17.087Z,6.70
2023-04-28T00:28:30.424Z,6.80
2023-04-28T00:29:19.044Z,6.90
2023-04-28T00:30:17.031Z,6.50
2023-04-28T00:31:17.045Z,7.80
2023-04-28T00:32:17.046Z,7.20
2023-04-28T00:33:17.026Z,7.00
2023-04-28T00:34:17.242Z,6.70
2023-04-28T00:35:16.994Z,6.20
2023-04-28T00:36:16.996Z,6.50
2023-04-28T00:37:17.010Z,7.60
2023-04-28T00:38:16.969Z,7.10
2023-04-28T00:39:16.962Z,6.90
2023-04-28T00:40:16.956Z,6.90
2023-04-28T00:41:16.955Z,6.70
2023-04-28T00:42:17.079Z,6.90
2023-04-28T00:43:16.930Z,7.00
2023-04-28T00:44:17.087Z,6.70
2023-04-28T00:45:16.926Z,7.10
2023-04-28T00:46:16.951Z,6.70
2023-04-28T00:47:16.927Z,6.70
2023-04-28T00:48:16.891Z,6.60
2023-04-28T00:49:16.906Z,6.40
2023-04-28T00:50:16.886Z,6.60
2023-04-28T00:51:16.885Z,8.00
2023-04-28T00:52:16.900Z,6.40
2023-04-28T00:53:16.893Z,6.80
2023-04-28T00:54:17.064Z,6.50
2023-04-28T00:55:16.856Z,6.80
2023-04-28T00:56:16.832Z,6.80
2023-04-28T00:57:16.825Z,6.50
2023-04-28T00:58:16.846Z,6.80
2023-04-28T00:59:16.812Z,7.40
2023-04-28T01:00:16.809Z,7.00
2023-04-28T01:01:16.876Z,6.80
2023-04-28T01:02:16.937Z,6.70
2023-04-28T01:03:17.000Z,7.30
2023-04-28T01:04:17.027Z,7.20
2023-04-28T01:05:16.772Z,6.60
2023-04-28T01:06:16.748Z,7.50
2023-04-28T01:07:16.757Z,6.90
2023-04-28T01:08:16.761Z,7.10
2023-04-28T01:09:16.738Z,6.90
2023-04-28T01:10:16.727Z,6.60
2023-04-28T01:11:16.722Z,6.50
2023-04-28T01:12:16.703Z,6.30
2023-04-28T01:13:16.781Z,6.60
2023-04-28T01:14:16.949Z,6.90
2023-04-28T01:15:16.741Z,7.00
2023-04-28T01:16:16.738Z,6.90
2023-04-28T01:17:16.674Z,7.40
2023-04-28T01:18:16.682Z,6.90
2023-04-28T01:19:16.668Z,6.30
2023-04-28T01:20:16.647Z,8.00
2023-04-28T01:21:16.633Z,7.20
2023-04-28T01:22:16.701Z,7.30
2023-04-28T01:23:16.659Z,6.60
2023-04-28T01:24:16.857Z,7.10
2023-04-28T01:25:16.604Z,6.60
2023-04-28T01:26:16.614Z,6.80
2023-04-28T01:27:16.601Z,7.00
2023-04-28T01:28:17.626Z,7.10
2023-04-28T01:29:16.603Z,8.20
2023-04-28T01:30:16.582Z,7.20
2023-04-28T01:31:16.588Z,6.60
2023-04-28T01:32:16.747Z,6.70
2023-04-28T01:33:16.546Z,7.10
2023-04-28T01:34:16.825Z,7.60
2023-04-28T01:35:16.539Z,7.30
2023-04-28T01:36:16.532Z,8.10
2023-04-28T01:37:16.523Z,6.70
2023-04-28T01:38:16.559Z,7.70
2023-04-28T01:39:16.499Z,6.80
2023-04-28T01:40:16.502Z,7.40
2023-04-28T01:41:16.485Z,6.90
2023-04-28T01:42:16.473Z,7.40
2023-04-28T01:43:16.499Z,7.50
2023-04-28T01:44:16.665Z,7.20
2023-04-28T01:45:16.467Z,7.30
2023-04-28T01:46:16.492Z,7.30
2023-04-28T01:47:16.446Z,6.90
2023-04-28T01:48:16.453Z,7.20
2023-04-28T01:49:16.425Z,7.60
2023-04-28T01:50:16.489Z,7.60
2023-04-28T01:51:16.434Z,8.10
2023-04-28T01:52:16.398Z,7.60
2023-04-28T01:53:16.862Z,6.60
2023-04-28T01:54:16.660Z,7.20
2023-04-28T01:55:16.384Z,6.90
2023-04-28T01:56:16.374Z,6.90
2023-04-28T01:57:17.515Z,7.40
2023-04-28T01:58:16.382Z,7.60
2023-04-28T01:59:16.346Z,7.50
2023-04-28T02:00:16.354Z,6.90
2023-04-28T02:01:16.360Z,8.20
2023-04-28T02:02:16.406Z,6.90
2023-04-28T02:03:16.426Z,7.00
2023-04-28T02:04:16.532Z,6.50
2023-04-28T02:05:16.296Z,7.00
2023-04-28T02:06:16.292Z,7.30
2023-04-28T02:07:16.287Z,7.10
2023-04-28T02:08:16.304Z,7.40
2023-04-28T02:09:16.271Z,7.40
2023-04-28T02:10:16.260Z,7.70
2023-04-28T02:11:16.268Z,7.60
2023-04-28T02:12:16.238Z,7.60
2023-04-28T02:13:16.260Z,7.70
2023-04-28T02:14:16.597Z,7.80
2023-04-28T02:15:16.220Z,8.60
2023-04-28T02:16:16.239Z,8.10
2023-04-28T02:17:16.201Z,7.90
2023-04-28T02:18:16.219Z,7.70
2023-04-28T02:19:16.194Z,7.80
2023-04-28T02:20:16.184Z,7.20
2023-04-28T02:21:16.170Z,7.80
2023-04-28T02:22:16.161Z,8.20
2023-04-28T02:23:16.180Z,7.10
2023-04-28T02:24:16.461Z,8.40
2023-04-28T02:25:16.138Z,7.40
2023-04-28T02:26:16.132Z,7.10
2023-04-28T02:27:16.114Z,7.20
2023-04-28T02:28:16.136Z,7.60
2023-04-28T02:29:16.108Z,7.90
2023-04-28T02:30:16.109Z,7.70
2023-04-28T02:31:16.234Z,8.00
2023-04-28T02:32:16.114Z,7.70
2023-04-28T02:33:16.109Z,7.70
2023-04-28T02:34:16.324Z,8.20
2023-04-28T02:35:16.142Z,8.00
2023-04-28T02:36:16.135Z,8.00
2023-04-28T02:37:16.137Z,8.20
2023-04-28T02:38:16.135Z,7.60
2023-04-28T02:39:16.034Z,7.90
2023-04-28T02:40:16.021Z,7.50
2023-04-28T02:41:16.014Z,8.00
2023-04-28T02:42:16.005Z,7.80
2023-04-28T02:43:16.045Z,9.10
2023-04-28T02:44:16.238Z,8.30
2023-04-28T02:45:15.979Z,8.20
2023-04-28T02:46:15.981Z,8.20
2023-04-28T02:47:15.965Z,7.30
2023-04-28T02:48:15.982Z,8.50
2023-04-28T02:49:15.949Z,8.90
2023-04-28T02:50:15.961Z,8.30
2023-04-28T02:51:15.937Z,7.90
2023-04-28T02:52:15.930Z,7.50
2023-04-28T02:53:15.958Z,8.20
2023-04-28T02:54:16.153Z,8.20
2023-04-28T02:55:15.905Z,7.90
2023-04-28T02:56:15.907Z,7.90
2023-04-28T02:57:15.910Z,8.90
2023-04-28T02:58:15.924Z,8.60
2023-04-28T02:59:15.875Z,8.10
2023-04-28T03:00:15.872Z,8.50
2023-04-28T03:01:15.910Z,9.40
2023-04-28T03:02:15.932Z,8.50
2023-04-28T03:03:16.092Z,8.10
2023-04-28T03:04:16.284Z,8.60
2023-04-28T03:05:15.839Z,8.60
2023-04-28T03:06:15.831Z,9.20
2023-04-28T03:07:15.824Z,9.10
2023-04-28T03:08:15.809Z,8.50
2023-04-28T03:09:15.833Z,8.40
2023-04-28T03:10:15.791Z,8.60
2023-04-28T03:11:15.781Z,8.50
2023-04-28T03:12:15.774Z,8.70
2023-04-28T03:13:15.764Z,8.00
2023-04-28T03:14:16.054Z,8.80
2023-04-28T03:15:15.771Z,9.30
2023-04-28T03:16:15.787Z,9.40
2023-04-28T03:17:15.758Z,9.40
2023-04-28T03:18:15.729Z,8.70
2023-04-28T03:19:15.764Z,9.00
2023-04-28T03:20:15.728Z,9.00
2023-04-28T03:21:15.717Z,9.70
2023-04-28T03:22:15.707Z,9.10
2023-04-28T03:23:15.717Z,9.50
2023-04-28T03:24:15.964Z,9.70
2023-04-28T03:25:15.674Z,9.40
2023-04-28T03:26:15.669Z,9.90
2023-04-28T03:27:15.662Z,10.10
2023-04-28T03:28:15.660Z,10.00
2023-04-28T03:29:15.659Z,10.10
2023-04-28T03:30:15.702Z,9.50
2023-04-28T03:31:15.627Z,10.30
2023-04-28T03:32:15.677Z,9.60
2023-04-28T03:33:15.612Z,10.30
2023-04-28T03:34:15.826Z,10.00
2023-04-28T03:35:15.637Z,10.50
2023-04-28T03:36:15.587Z,10.80
2023-04-28T03:37:15.591Z,10.30
2023-04-28T03:38:15.569Z,10.20
2023-04-28T03:39:15.589Z,9.60
2023-04-28T03:40:15.550Z,10.60
2023-04-28T03:41:15.547Z,9.70
2023-04-28T03:42:15.543Z,10.40
2023-04-28T03:43:15.534Z,10.50
2023-04-28T03:44:15.660Z,10.70
2023-04-28T03:45:15.512Z,11.20
2023-04-28T03:46:15.567Z,11.40
2023-04-28T03:47:15.498Z,11.80
2023-04-28T03:48:15.529Z,16.00
2023-04-28T03:49:15.526Z,16.80
2023-04-28T03:50:15.479Z,16.70
2023-04-28T03:51:15.472Z,17.40
2023-04-28T03:52:15.461Z,16.30
2023-04-28T03:53:15.447Z,15.10
2023-04-28T03:54:15.622Z,16.30
2023-04-28T03:55:15.437Z,17.10
2023-04-28T03:56:15.431Z,13.30
2023-04-28T03:57:15.435Z,11.50
2023-04-28T03:58:15.426Z,11.80
2023-04-28T03:59:15.430Z,11.10
2023-04-28T04:00:15.414Z,10.40
2023-04-28T04:01:15.390Z,11.00
2023-04-28T04:02:15.400Z,11.70
2023-04-28T04:03:15.586Z,11.50
2023-04-28T04:04:15.890Z,11.40
2023-04-28T04:05:15.475Z,10.90
2023-04-28T04:06:15.353Z,9.80
2023-04-28T04:07:15.353Z,10.70
2023-04-28T04:08:15.338Z,10.50
2023-04-28T04:09:15.353Z,10.70
2023-04-28T04:10:15.326Z,11.10
2023-04-28T04:11:15.318Z,10.90
2023-04-28T04:12:15.310Z,10.70
2023-04-28T04:13:15.303Z,11.00
2023-04-28T04:14:15.485Z,10.50
2023-04-28T04:15:15.282Z,10.60
2023-04-28T04:16:15.320Z,12.20
2023-04-28T04:17:15.283Z,13.00
2023-04-28T04:18:15.261Z,11.60
2023-04-28T04:19:15.294Z,11.80
2023-04-28T04:20:15.248Z,12.10
2023-04-28T04:21:15.229Z,11.50
2023-04-28T04:22:15.234Z,11.50
2023-04-28T04:23:15.222Z,11.80
2023-04-28T04:24:15.390Z,12.20
2023-04-28T04:25:15.237Z,12.10
2023-04-28T04:26:15.199Z,13.00
2023-04-28T04:27:15.198Z,11.90
2023-04-28T04:28:15.185Z,11.60
2023-04-28T04:29:15.202Z,12.60
2023-04-28T04:30:15.164Z,11.70
2023-04-28T04:31:15.191Z,11.70
2023-04-28T04:32:15.153Z,11.80
2023-04-28T04:33:15.157Z,12.10
2023-04-28T04:34:15.340Z,11.90
2023-04-28T04:35:15.129Z,12.20
2023-04-28T04:36:15.113Z,11.90
2023-04-28T04:37:15.111Z,12.30
2023-04-28T04:38:15.101Z,13.00
2023-04-28T04:39:15.116Z,12.00
2023-04-28T04:40:15.089Z,13.00
2023-04-28T04:41:15.095Z,12.50
2023-04-28T04:42:24.970Z,12.30
2023-04-28T04:43:17.064Z,12.90
2023-04-28T04:44:15.268Z,12.10
2023-04-28T04:45:15.054Z,12.90
2023-04-28T04:46:15.066Z,12.20
2023-04-28T04:47:15.029Z,12.40
2023-04-28T04:48:15.040Z,13.20
2023-04-28T04:49:15.045Z,11.40
2023-04-28T04:50:15.029Z,12.60
2023-04-28T04:51:15.002Z,13.00
2023-04-28T04:52:14.985Z,12.90
2023-04-28T04:53:16.566Z,13.00
2023-04-28T04:54:16.198Z,12.10
2023-04-28T04:55:14.968Z,12.40
2023-04-28T04:56:14.960Z,12.20
2023-04-28T04:57:14.955Z,12.00
2023-04-28T04:58:14.974Z,12.70
2023-04-28T04:59:14.947Z,12.70
2023-04-28T05:00:14.938Z,11.90
2023-04-28T05:01:14.927Z,13.00
2023-04-28T05:02:15.016Z,12.00
2023-04-28T05:03:15.021Z,12.00
2023-04-28T05:04:15.053Z,13.20
2023-04-28T05:06:15.895Z,13.60
2023-04-28T05:07:14.880Z,12.40
2023-04-28T05:08:14.904Z,12.70
2023-04-28T05:09:14.863Z,13.60
2023-04-28T05:10:14.854Z,13.40
2023-04-28T05:11:14.849Z,12.70
2023-04-28T05:12:14.837Z,12.60
2023-04-28T05:13:14.836Z,12.50
2023-04-28T05:14:15.151Z,13.30
2023-04-28T05:15:14.822Z,12.20
2023-04-28T05:16:14.833Z,12.40
2023-04-28T05:17:14.803Z,12.80
2023-04-28T05:18:14.916Z,12.30
2023-04-28T05:19:14.814Z,13.20
2023-04-28T05:20:14.791Z,12.60
2023-04-28T05:21:14.775Z,12.60
2023-04-28T05:22:14.769Z,13.20
2023-04-28T05:23:14.757Z,13.80
2023-04-28T05:24:15.004Z,13.10
2023-04-28T05:25:14.738Z,13.20
2023-04-28T05:26:14.730Z,12.80
2023-04-28T05:27:14.735Z,13.00
2023-04-28T05:28:14.767Z,13.20
2023-04-28T05:29:14.736Z,13.00
2023-04-28T05:30:14.700Z,12.40
2023-04-28T05:31:14.713Z,12.60
2023-04-28T05:32:14.709Z,12.50
2023-04-28T05:33:14.698Z,11.90
2023-04-28T05:34:14.980Z,13.60
2023-04-28T05:35:14.695Z,13.50
2023-04-28T05:36:15.085Z,13.90
2023-04-28T05:37:14.663Z,13.10
2023-04-28T05:38:14.654Z,13.70
2023-04-28T05:39:14.715Z,13.50
2023-04-28T05:40:14.653Z,14.10
2023-04-28T05:41:14.617Z,13.20
2023-04-28T05:42:15.600Z,14.00
2023-04-28T05:43:14.597Z,13.30
2023-04-28T05:44:14.938Z,12.70
2023-04-28T05:45:14.598Z,13.60
2023-04-28T05:46:28.978Z,13.40
2023-04-28T05:47:16.646Z,14.50
2023-04-28T05:48:14.571Z,14.60
2023-04-28T05:49:14.581Z,13.10
2023-04-28T05:50:14.547Z,14.40
2023-04-28T05:51:14.541Z,16.40
2023-04-28T05:52:14.537Z,13.70
2023-04-28T05:53:14.523Z,14.20
2023-04-28T05:54:14.611Z,13.50
2023-04-28T05:55:14.514Z,13.60
2023-04-28T05:56:14.498Z,14.40
2023-04-28T05:57:14.494Z,14.50
2023-04-28T05:58:14.486Z,12.90
2023-04-28T05:59:15.406Z,14.10
2023-04-28T06:00:14.472Z,14.00
2023-04-28T06:01:14.472Z,13.70
2023-04-28T06:02:14.613Z,13.80
2023-04-28T06:03:14.583Z,14.40
2023-04-28T06:04:14.696Z,13.90
2023-04-28T06:05:14.609Z,14.10
2023-04-28T06:06:14.512Z,14.10
2023-04-28T06:07:14.423Z,13.50
2023-04-28T06:08:14.404Z,14.10
2023-04-28T06:09:14.565Z,14.60
2023-04-28T06:10:14.399Z,14.00
2023-04-28T06:11:14.389Z,13.10
2023-04-28T06:12:14.372Z,13.10
2023-04-28T06:13:14.746Z,14.40
2023-04-28T06:14:15.669Z,14.10
2023-04-28T06:15:14.353Z,13.70
2023-04-28T06:16:14.393Z,14.00
2023-04-28T06:17:14.337Z,14.10
2023-04-28T06:18:14.357Z,14.10
2023-04-28T06:19:14.332Z,13.40
2023-04-28T06:20:14.323Z,13.90
2023-04-28T06:21:14.312Z,13.60
2023-04-28T06:22:14.301Z,14.80
2023-04-28T06:23:14.321Z,14.60
2023-04-28T06:24:14.379Z,14.70
2023-04-28T06:25:14.271Z,14.40
2023-04-28T06:26:15.621Z,14.20
2023-04-28T06:27:14.258Z,14.20
2023-04-28T06:28:14.273Z,13.70
2023-04-28T06:29:14.251Z,14.30
2023-04-28T06:30:14.236Z,14.50
2023-04-28T06:31:14.260Z,13.60
2023-04-28T06:32:14.233Z,13.80
2023-04-28T06:33:14.261Z,14.20
2023-04-28T06:34:14.500Z,13.10
2023-04-28T06:35:14.202Z,14.10
2023-04-28T06:36:14.234Z,13.20
2023-04-28T06:37:14.180Z,13.70
2023-04-28T06:38:14.199Z,12.40
2023-04-28T06:39:14.165Z,13.60
2023-04-28T06:40:14.157Z,13.00
2023-04-28T06:41:14.147Z,12.80
2023-04-28T06:42:14.169Z,13.40
2023-04-28T06:43:14.163Z,13.70
2023-04-28T06:44:14.224Z,14.30
2023-04-28T06:45:14.127Z,14.10
2023-04-28T06:46:14.122Z,13.70
2023-04-28T06:47:14.105Z,13.70
2023-04-28T06:48:14.159Z,13.70
2023-04-28T06:49:14.085Z,13.10
2023-04-28T06:50:14.094Z,13.10
2023-04-28T06:51:14.073Z,13.40
2023-04-28T06:52:14.071Z,13.10
2023-04-28T06:53:14.081Z,13.30
2023-04-28T06:54:14.071Z,13.40
2023-04-28T06:55:14.051Z,12.90
2023-04-28T06:56:14.038Z,13.50
2023-04-28T06:57:14.029Z,13.50
2023-04-28T06:58:14.044Z,13.50
2023-04-28T06:59:14.004Z,12.50
2023-04-28T07:00:14.024Z,12.20
2023-04-28T07:01:14.024Z,12.30
2023-04-28T07:02:14.029Z,12.80
2023-04-28T07:03:14.109Z,12.70
2023-04-28T07:04:14.055Z,13.90
2023-04-28T07:05:16.015Z,12.40
2023-04-28T07:06:14.955Z,13.20
2023-04-28T07:07:13.952Z,13.00
2023-04-28T07:08:13.968Z,12.70
2023-04-28T07:09:13.952Z,13.80
2023-04-28T07:10:13.973Z,13.10
2023-04-28T07:11:13.917Z,13.00
2023-04-28T07:12:13.906Z,12.50
2023-04-28T07:13:13.897Z,13.10
2023-04-28T07:14:13.977Z,12.40
2023-04-28T07:15:13.878Z,13.60
2023-04-28T07:16:13.902Z,12.10
2023-04-28T07:17:13.878Z,12.80
2023-04-28T07:18:13.916Z,12.90
2023-04-28T07:19:13.878Z,13.50
2023-04-28T07:20:13.861Z,13.60
2023-04-28T07:21:13.893Z,13.10
2023-04-28T07:22:13.841Z,12.40
2023-04-28T07:23:13.857Z,13.50
2023-04-28T07:24:14.223Z,13.00
2023-04-28T07:25:13.820Z,13.10
2023-04-28T07:26:14.801Z,13.60
2023-04-28T07:27:14.803Z,13.80
2023-04-28T07:28:45.756Z,13.00
2023-04-28T07:29:13.779Z,13.40
2023-04-28T07:30:26.505Z,14.80
2023-04-28T07:31:15.776Z,14.00
2023-04-28T07:32:13.887Z,13.10
2023-04-28T07:33:13.832Z,13.10
2023-04-28T07:34:13.827Z,13.30
2023-04-28T07:35:13.741Z,13.50
2023-04-28T07:36:13.732Z,13.50
2023-04-28T07:37:13.722Z,13.10
2023-04-28T07:38:13.711Z,13.20
2023-04-28T07:39:13.727Z,13.50
2023-04-28T07:40:13.705Z,13.40
2023-04-28T07:41:13.696Z,13.20
2023-04-28T07:42:13.683Z,13.30
2023-04-28T07:43:13.697Z,14.30
2023-04-28T07:44:13.716Z,14.00
2023-04-28T07:45:13.661Z,13.40
2023-04-28T07:46:13.771Z,13.40
2023-04-28T07:47:13.638Z,14.10
2023-04-28T07:48:13.679Z,15.00
2023-04-28T07:49:13.620Z,13.00
2023-04-28T07:50:13.625Z,13.30
2023-04-28T07:51:13.632Z,13.50
2023-04-28T07:52:13.606Z,13.60
2023-04-28T07:53:13.620Z,14.30
2023-04-28T07:54:13.612Z,13.70
2023-04-28T07:55:13.591Z,13.90
2023-04-28T07:56:13.583Z,14.00
2023-04-28T07:57:13.567Z,14.30
2023-04-28T07:58:13.590Z,14.10
2023-04-28T07:59:13.551Z,14.50
2023-04-28T08:00:13.544Z,14.40
2023-04-28T08:01:13.537Z,14.90
2023-04-28T08:02:13.584Z,14.70
2023-04-28T08:03:13.771Z,14.60
2023-04-28T08:04:14.167Z,15.10
2023-04-28T08:05:13.697Z,14.10
2023-04-28T08:06:13.494Z,14.50
2023-04-28T08:07:13.491Z,15.10
2023-04-28T08:08:13.502Z,14.70
2023-04-28T08:09:13.462Z,14.60
2023-04-28T08:10:13.468Z,15.30
2023-04-28T08:11:13.485Z,14.80
2023-04-28T08:12:13.444Z,13.80
2023-04-28T08:13:13.465Z,13.10
2023-04-28T08:14:13.462Z,14.40
2023-04-28T08:15:13.429Z,14.10
2023-04-28T08:16:13.446Z,14.50
2023-04-28T08:17:13.401Z,14.10
2023-04-28T08:18:13.468Z,14.40
2023-04-28T08:19:13.400Z,14.30
2023-04-28T08:20:13.381Z,12.20
2023-04-28T08:21:13.371Z,12.30
2023-04-28T08:22:13.361Z,13.10
2023-04-28T08:23:13.385Z,13.80
2023-04-28T08:24:13.382Z,13.40
2023-04-28T08:25:13.341Z,13.20
2023-04-28T08:26:13.342Z,13.10
2023-04-28T08:27:13.333Z,13.80
2023-04-28T08:28:13.324Z,13.30
2023-04-28T08:29:13.331Z,12.00
2023-04-28T08:30:13.329Z,12.70
2023-04-28T08:31:13.331Z,12.70
2023-04-28T08:32:13.278Z,14.20
2023-04-28T08:33:13.312Z,11.90
2023-04-28T08:34:15.241Z,12.10
2023-04-28T08:35:13.269Z,12.10
2023-04-28T08:36:13.254Z,10.90
2023-04-28T08:37:13.250Z,12.10
2023-04-28T08:38:13.248Z,12.40
2023-04-28T08:39:13.798Z,13.00
2023-04-28T08:40:14.227Z,12.60
2023-04-28T08:41:13.222Z,11.80
2023-04-28T08:42:13.212Z,12.50
2023-04-28T08:43:13.202Z,11.00
2023-04-28T08:44:13.221Z,11.40
2023-04-28T08:45:14.189Z,11.30
2023-04-28T08:46:13.212Z,11.70
2023-04-28T08:47:13.189Z,11.10
2023-04-28T08:48:13.164Z,10.70
2023-04-28T08:49:13.176Z,11.50
2023-04-28T08:50:13.152Z,10.70
2023-04-28T08:51:13.140Z,12.30
2023-04-28T08:52:13.148Z,10.90
2023-04-28T08:53:13.123Z,11.10
2023-04-28T08:54:29.575Z,11.70
2023-04-28T08:55:15.107Z,11.80
2023-04-28T08:56:13.104Z,11.80
2023-04-28T08:57:13.182Z,11.90
2023-04-28T08:58:13.096Z,11.80
2023-04-28T08:59:13.116Z,12.20
2023-04-28T09:00:13.074Z,11.60
2023-04-28T09:01:13.062Z,11.70
2023-04-28T09:02:13.192Z,11.40
2023-04-28T09:03:13.277Z,11.50
2023-04-28T09:04:14.626Z,11.30
2023-04-28T09:05:14.248Z,12.40
2023-04-28T09:06:13.046Z,11.60
2023-04-28T09:07:13.045Z,11.80
2023-04-28T09:08:13.015Z,11.20
2023-04-28T09:09:13.033Z,11.70
2023-04-28T09:10:12.978Z,12.00
2023-04-28T09:11:13.004Z,12.10
2023-04-28T09:12:12.982Z,11.40
2023-04-28T09:13:12.963Z,12.20
2023-04-28T09:14:12.977Z,11.90
2023-04-28T09:15:12.949Z,11.40
2023-04-28T09:16:12.966Z,11.90
2023-04-28T09:17:13.009Z,11.60
2023-04-28T09:18:12.955Z,11.30
2023-04-28T09:19:12.941Z,11.60
2023-04-28T09:20:12.905Z,11.70
2023-04-28T09:21:12.926Z,11.80
2023-04-28T09:22:24.659Z,11.90
2023-04-28T09:23:14.890Z,12.60
2023-04-28T09:24:12.900Z,12.40
2023-04-28T09:25:12.885Z,12.40
2023-04-28T09:26:12.867Z,12.00
2023-04-28T09:27:12.862Z,12.10
2023-04-28T09:28:12.846Z,12.70
2023-04-28T09:29:12.894Z,12.30
2023-04-28T09:30:12.832Z,12.30
2023-04-28T09:31:12.825Z,12.60
2023-04-28T09:32:12.945Z,11.90
2023-04-28T09:33:12.834Z,12.20
2023-04-28T09:34:13.475Z,12.60
2023-04-28T09:35:12.809Z,12.70
2023-04-28T09:36:12.783Z,12.60
2023-04-28T09:37:12.785Z,13.00
2023-04-28T09:38:12.774Z,12.70
2023-04-28T09:39:12.810Z,13.30
2023-04-28T09:40:12.789Z,12.40
2023-04-28T09:41:12.758Z,11.70
2023-04-28T09:42:12.758Z,12.10
2023-04-28T09:43:21.614Z,12.50
2023-04-28T09:44:15.003Z,12.40
2023-04-28T09:45:12.731Z,12.50
2023-04-28T09:46:12.754Z,12.50
2023-04-28T09:47:12.704Z,12.30
2023-04-28T09:48:12.749Z,13.20
2023-04-28T09:49:12.702Z,12.50
2023-04-28T09:50:12.697Z,12.90
2023-04-28T09:51:13.241Z,12.20
2023-04-28T09:52:12.668Z,12.00
2023-04-28T09:53:12.689Z,11.60
2023-04-28T09:54:12.666Z,12.30
2023-04-28T09:55:12.670Z,11.90
2023-04-28T09:56:12.660Z,12.00
2023-04-28T09:57:12.637Z,12.40
2023-04-28T09:58:12.647Z,12.10
2023-04-28T09:59:12.624Z,12.40
2023-04-28T10:00:12.614Z,12.50
2023-04-28T10:01:12.616Z,12.10
2023-04-28T10:02:32.024Z,12.40
2023-04-28T10:03:14.714Z,12.00
2023-04-28T10:04:12.647Z,12.80
2023-04-28T10:05:12.724Z,12.90
2023-04-28T10:06:12.558Z,11.80
2023-04-28T10:07:12.551Z,12.50
2023-04-28T10:08:12.551Z,12.30
2023-04-28T10:09:12.564Z,11.90
2023-04-28T10:10:12.530Z,12.30
2023-04-28T10:11:12.535Z,12.40
2023-04-28T10:12:12.529Z,12.00
2023-04-28T10:13:12.510Z,12.60
2023-04-28T10:14:12.528Z,12.40
2023-04-28T10:15:12.492Z,12.30
2023-04-28T10:16:12.608Z,12.00
2023-04-28T10:17:12.474Z,12.50
2023-04-28T10:18:12.675Z,12.80
2023-04-28T10:19:12.483Z,12.00
2023-04-28T10:20:12.458Z,12.90
2023-04-28T10:21:12.444Z,12.50
2023-04-28T10:22:12.441Z,13.00
2023-04-28T10:23:12.428Z,13.10
2023-04-28T10:24:12.474Z,13.60
2023-04-28T10:25:12.439Z,12.60
2023-04-28T10:26:12.423Z,12.00
2023-04-28T10:27:12.405Z,12.30
2023-04-28T10:28:12.395Z,12.90
2023-04-28T10:29:12.415Z,12.60
2023-04-28T10:30:23.005Z,12.80
2023-04-28T10:31:14.407Z,12.70
2023-04-28T10:32:12.358Z,13.20
2023-04-28T10:33:12.410Z,13.50
2023-04-28T10:34:12.374Z,12.90
2023-04-28T10:35:12.342Z,13.60
2023-04-28T10:36:12.343Z,14.00
2023-04-28T10:37:12.327Z,14.00
2023-04-28T10:38:12.377Z,14.70
2023-04-28T10:39:12.310Z,13.00
2023-04-28T10:40:12.300Z,13.10
2023-04-28T10:41:12.291Z,12.70
2023-04-28T10:42:12.284Z,13.10
2023-04-28T10:43:12.275Z,12.40
2023-04-28T10:44:12.301Z,12.40
2023-04-28T10:45:12.267Z,12.70
2023-04-28T10:46:12.350Z,13.10
2023-04-28T10:47:12.262Z,12.30
2023-04-28T10:48:12.244Z,11.60
2023-04-28T10:49:12.329Z,12.70
2023-04-28T10:50:12.339Z,11.90
2023-04-28T10:51:12.221Z,11.90
2023-04-28T10:52:12.207Z,11.70
2023-04-28T10:53:12.211Z,11.30
2023-04-28T10:54:12.217Z,11.20
2023-04-28T10:55:21.389Z,11.70
2023-04-28T10:56:14.173Z,11.60
2023-04-28T10:57:12.174Z,12.50
2023-04-28T10:58:12.149Z,12.00
2023-04-28T10:59:13.187Z,12.10
2023-04-28T11:00:12.174Z,12.00
2023-04-28T11:01:12.173Z,12.10
2023-04-28T11:02:12.156Z,11.10
2023-04-28T11:03:12.245Z,11.10
2023-04-28T11:04:12.273Z,11.50
2023-04-28T11:05:12.379Z,11.90
2023-04-28T11:06:12.097Z,11.60
2023-04-28T11:07:12.097Z,11.80
2023-04-28T11:08:12.101Z,11.20
2023-04-28T11:09:12.102Z,11.40
2023-04-28T11:10:12.113Z,12.00
2023-04-28T11:11:12.067Z,11.90
2023-04-28T11:12:12.040Z,11.70
2023-04-28T11:13:12.037Z,11.40
2023-04-28T11:14:12.054Z,11.30
2023-04-28T11:15:12.028Z,11.60
2023-04-28T11:16:12.071Z,12.00
2023-04-28T11:17:12.019Z,11.70
2023-04-28T11:18:12.050Z,12.00
2023-04-28T11:19:12.025Z,12.20
2023-04-28T11:20:12.020Z,11.10
2023-04-28T11:21:11.979Z,11.20
2023-04-28T11:22:11.987Z,10.40
2023-04-28T11:23:11.990Z,11.60
2023-04-28T11:24:11.986Z,10.90
2023-04-28T11:25:11.956Z,11.30
2023-04-28T11:26:11.943Z,10.90
2023-04-28T11:27:11.928Z,11.90
2023-04-28T11:28:11.926Z,11.50
2023-04-28T11:29:11.923Z,10.70
2023-04-28T11:30:11.941Z,10.40
2023-04-28T11:31:11.894Z,11.70
2023-04-28T11:32:11.939Z,11.80
2023-04-28T11:33:11.931Z,11.90
2023-04-28T11:34:11.890Z,10.90
2023-04-28T11:35:11.905Z,11.80
2023-04-28T11:36:11.858Z,11.20
2023-04-28T11:37:11.849Z,10.70
2023-04-28T11:38:11.851Z,11.30
2023-04-28T11:39:11.832Z,10.50
2023-04-28T11:40:11.845Z,10.80
2023-04-28T11:41:11.825Z,10.40
2023-04-28T11:42:11.871Z,10.60
2023-04-28T11:43:11.810Z,11.30
2023-04-28T11:44:11.802Z,11.30
2023-04-28T11:45:11.828Z,10.80
2023-04-28T11:46:11.814Z,11.20
2023-04-28T11:47:11.769Z,11.00
2023-04-28T11:48:11.916Z,11.10
2023-04-28T11:49:11.753Z,11.00
2023-04-28T11:50:11.772Z,10.80
2023-04-28T11:51:11.740Z,11.00
2023-04-28T11:52:11.727Z,9.50
2023-04-28T11:53:12.274Z,10.10
2023-04-28T11:54:11.745Z,10.80
2023-04-28T11:55:11.734Z,10.60
2023-04-28T11:56:11.701Z,10.40
2023-04-28T11:57:11.714Z,10.70
2023-04-28T11:58:11.683Z,10.90
2023-04-28T11:59:11.673Z,10.90
2023-04-28T12:00:11.699Z,11.00
2023-04-28T12:01:11.709Z,10.40
2023-04-28T12:02:11.676Z,10.50
2023-04-28T12:03:11.782Z,10.10
2023-04-28T12:04:11.829Z,10.40
2023-04-28T12:05:11.754Z,10.10
2023-04-28T12:06:11.615Z,10.40
2023-04-28T12:07:11.620Z,10.20
2023-04-28T12:08:11.600Z,10.60
2023-04-28T12:09:11.590Z,10.40
2023-04-28T12:10:11.610Z,10.50
2023-04-28T12:11:11.580Z,11.50
2023-04-28T12:12:11.572Z,11.80
2023-04-28T12:13:11.561Z,11.80
2023-04-28T12:14:11.569Z,10.90
2023-04-28T12:15:11.588Z,10.60
2023-04-28T12:16:11.610Z,10.80
2023-04-28T12:17:11.529Z,10.50
2023-04-28T12:18:12.524Z,10.80
2023-04-28T12:19:11.559Z,11.00
2023-04-28T12:20:11.560Z,11.00
2023-04-28T12:21:11.513Z,10.60
2023-04-28T12:22:11.519Z,10.30
2023-04-28T12:23:11.502Z,10.50
2023-04-28T12:24:11.502Z,11.10
2023-04-28T12:25:11.522Z,10.90
2023-04-28T12:26:11.481Z,10.60
2023-04-28T12:27:11.460Z,10.40
2023-04-28T12:28:11.459Z,10.00
2023-04-28T12:29:11.444Z,10.50
2023-04-28T12:30:11.462Z,10.80
2023-04-28T12:31:11.484Z,10.70
2023-04-28T12:32:11.412Z,10.20
2023-04-28T12:33:11.465Z,11.20
2023-04-28T12:34:11.402Z,11.50
2023-04-28T12:35:11.423Z,9.80
2023-04-28T12:36:11.384Z,10.90
2023-04-28T12:37:11.373Z,11.30
2023-04-28T12:38:11.363Z,9.70
2023-04-28T12:39:11.363Z,10.40
2023-04-28T12:40:11.394Z,10.90
2023-04-28T12:41:11.351Z,11.10
2023-04-28T12:42:11.336Z,11.10
2023-04-28T12:43:11.334Z,11.40
2023-04-28T12:44:11.337Z,10.20
2023-04-28T12:45:11.338Z,10.10
2023-04-28T12:46:11.329Z,10.40
2023-04-28T12:47:11.392Z,10.30
2023-04-28T12:48:11.370Z,10.30
2023-04-28T12:49:11.294Z,10.40
2023-04-28T12:50:11.296Z,10.80
2023-04-28T12:51:11.279Z,9.90
2023-04-28T12:52:11.291Z,9.40
2023-04-28T12:53:11.287Z,9.80
2023-04-28T12:54:11.253Z,10.30
2023-04-28T12:55:11.276Z,10.40
2023-04-28T12:56:11.242Z,10.20
2023-04-28T12:57:11.231Z,10.60
2023-04-28T12:58:11.217Z,9.60
2023-04-28T12:59:11.209Z,10.20
2023-04-28T13:00:11.215Z,9.50